Home   Weather   Germany   Rietberg   Past weeks
Flag for Germany

Past Weather in Rietberg, North Rhine-Westphalia, Germany — Yesterday and Last 2 Weeks

Currently: 64 °F. Clear. (Weather station: Paderborn / Lippstadt, Germany). See more current weather

Past Weather in Rietberg — Graph

°F

Rietberg Temperature Yesterday

Maximum temperature yesterday: 81 °F (at 2:50 pm)
Minimum temperature yesterday: 63 °F (at 12:50 am)
Average temperature yesterday: 72 °F

High & Low Weather Summary for the Past Weeks

 TemperatureHumidityPressure
High86 °F (Jul 9, 4:20 pm)100% (Jul 11, 1:50 am)30.24 "Hg (Jul 11, 1:50 am)
Low50 °F (Jul 7, 2:20 am)37% (Jul 15, 3:50 pm)29.56 "Hg (Jul 6, 11:20 am)
Average65 °F69%29.95 "Hg
* Reported Jul 5 1:20 am — Jul 20 1:50 am, Rietberg. Weather by CustomWeather, © 2024

Note: Actual official high and low records may vary slightly from our data, if they occured in-between our weather recording intervals... More about our weather records

Rietberg Weather History for the Previous 24 Hours

Scroll right to see more
 ConditionsComfort  
Time TempWeatherWind HumidityBarometerVisibility
1:50 am
Sat, Jul 20
66 °FClear.6 mph78%30.01 "Hg10 mi
1:20 am66 °FClear.7 mph78%30.01 "Hg10 mi
12:50 am66 °FClear.6 mph78%30.01 "Hg10 mi
12:20 am66 °FClear.7 mph78%30.01 "Hg10 mi
11:20 pm
Fri, Jul 19
68 °FClear.6 mph78%30.04 "Hg10 mi
10:50 pm68 °FClear.6 mph78%30.04 "Hg10 mi
10:20 pm68 °FClear.5 mph78%30.04 "Hg10 mi
9:50 pm72 °FClear.5 mph69%30.04 "Hg10 mi
9:20 pm73 °FSunny.5 mph65%30.04 "Hg10 mi
8:20 pm73 °FSunny.7 mph65%30.04 "Hg10 mi
7:50 pm75 °FSunny.7 mph61%30.04 "Hg10 mi
7:20 pm77 °FPassing clouds.6 mph57%30.04 "HgN/A
6:50 pm77 °FPassing clouds.6 mph57%30.07 "HgN/A
6:20 pm79 °FSunny.7 mph54%30.07 "Hg10 mi
5:50 pm79 °FPassing clouds.8 mph51%30.07 "HgN/A
5:20 pm79 °FPassing clouds.6 mph48%30.07 "HgN/A
4:50 pm79 °FPassing clouds.6 mph48%30.07 "HgN/A
4:20 pm79 °FPassing clouds.6 mph48%30.09 "HgN/A
3:20 pm79 °FPassing clouds.8 mph51%30.09 "HgN/A
2:50 pm81 °FSunny.5 mph45%30.09 "Hg10 mi
2:20 pm79 °FPassing clouds.8 mph45%30.12 "HgN/A
1:50 pm79 °FPassing clouds.8 mph48%30.12 "HgN/A
1:20 pm79 °FSunny.5 mph45%30.12 "Hg10 mi
12:50 pm79 °FPassing clouds.9 mph45%30.12 "HgN/A
12:20 pm79 °FPassing clouds.8 mph48%30.12 "HgN/A
11:50 am79 °FSunny.9 mph45%30.12 "Hg10 mi
11:20 am77 °FPassing clouds.8 mph47%30.12 "HgN/A
10:20 am75 °FPassing clouds.7 mph54%30.15 "HgN/A
9:50 am75 °FSunny.7 mph54%30.15 "Hg10 mi
9:20 am73 °FPassing clouds.6 mph57%30.15 "HgN/A
8:50 am72 °FSunny.6 mph61%30.15 "Hg10 mi
8:20 am68 °FSunny.6 mph69%30.15 "Hg10 mi
7:20 am66 °FSunny.7 mph68%30.15 "Hg10 mi
6:50 am63 °FSunny.6 mph77%30.15 "Hg10 mi
6:20 am63 °FSunny.7 mph77%30.15 "Hg10 mi
5:50 am63 °FSunny.7 mph73%30.15 "Hg10 mi
5:20 am63 °FClear.7 mph73%30.15 "Hg10 mi
4:20 am63 °FClear.8 mph73%30.15 "Hg10 mi
3:20 am64 °FClear.8 mph68%30.18 "Hg10 mi
2:50 am63 °FClear.7 mph77%30.18 "Hg10 mi
2:20 am64 °FClear.7 mph73%30.18 "Hg10 mi
Weather by CustomWeather, © 2024

See weather overview